El Portal, Florida
Current Conditions -  °F | °C
As of 7:07 AM on Thursday 23 Oct 2014 (Local Time) from KMIA Reporting Station
Overcast Overcast  
Wind Chill: 74°   Ceiling: 1600
Heat Index: 74°   Visibility: 10mi
Dew Point: 72°   Wind: 3mph
Humidity: 93%   Direction: 10°N
Pressure: 29.9"   Gusts: NA
Location:  25.852°N, 80.2071°W
Report Text: KMIA 231107Z 01003KT 10SM FEW002 BKN016 OVC120 23/22 A2990 RMK AO2 RAE05 P0000 T02330222 $
Loading
Personal Weather Stations






























Interactive Weather Map
Tropical Storm Tracking
New forecast layout! Learn more

10-Day Weather Forecast

Advertisements
Track Severe Weather on mobile